Time;durP1;ratioP1;P1;durP2;ratioP2;P2;SDS_P1;SDS_P2;PMS_P1;PMS_P2;Temp;Humidity;BMP_temperature;BMP_pressure;BME280_temperature;BME280_humidity;BME280_pressure;Samples;Min_cycle;Max_cycle;Signal;HPM_P1;HPM_P2
2023/04/10 00:01:42;;;;;;;8.87;5.70;;;;;;;8.48;84.42;63826.41;5031618;28;20550;-59
2023/04/10 00:04:07;;;;;;;7.33;4.73;;;;;;;8.48;82.85;63825.88;5031452;28;20731;-57
2023/04/10 00:06:33;;;;;;;6.97;5.20;;;;;;;8.41;80.42;63818.22;5031469;28;20190;-58
2023/04/10 00:08:58;;;;;;;6.27;5.03;;;;;;;8.27;80.87;63802.91;5013635;28;20724;-59
2023/04/10 00:11:25;;;;;;;6.33;4.73;;;;;;;8.26;78.50;63802.38;5031335;28;20190;-58
2023/04/10 00:13:50;;;;;;;6.93;4.80;;;;;;;8.23;77.38;63801.59;5013697;28;20213;-59
2023/04/10 00:16:16;;;;;;;5.97;4.23;;;;;;;8.10;76.67;63782.38;5031177;28;20184;-59
2023/04/10 00:18:41;;;;;;;5.97;3.80;;;;;;;8.09;76.13;63785.75;5031149;28;20757;-60
2023/04/10 00:21:07;;;;;;;5.50;3.50;;;;;;;8.10;75.15;63782.38;5031137;28;20174;-58
2023/04/10 00:23:33;;;;;;;6.07;3.97;;;;;;;8.11;75.07;63785.97;5031088;28;20688;-58
2023/04/10 00:26:00;;;;;;;5.53;3.93;;;;;;;8.13;75.47;63788.16;5013320;28;20178;-60
2023/04/10 00:28:26;;;;;;;3.97;3.43;;;;;;;8.07;73.14;63784.13;5030797;28;20205;-59
2023/04/10 00:30:51;;;;;;;4.13;3.30;;;;;;;8.02;73.67;63775.63;5030989;28;20385;-58
2023/04/10 00:33:16;;;;;;;3.77;2.80;;;;;;;7.98;69.97;63774.28;5031116;28;20210;-59
2023/04/10 00:35:42;;;;;;;5.40;3.23;;;;;;;7.88;70.80;63760.88;5031279;28;20618;-59
2023/04/10 00:38:07;;;;;;;4.33;3.17;;;;;;;7.83;72.62;63754.88;5031032;28;20225;-59
2023/04/10 00:40:34;;;;;;;3.10;2.80;;;;;;;7.89;72.78;63761.41;5031018;28;20514;-60
2023/04/10 00:43:00;;;;;;;3.50;2.80;;;;;;;7.99;73.14;63775.38;5030743;28;20225;-58
2023/04/10 00:45:25;;;;;;;3.53;2.73;;;;;;;7.98;71.59;63769.28;5030845;28;20178;-59
2023/04/10 00:47:51;;;;;;;3.87;3.03;;;;;;;8.01;71.27;63780.09;5030789;28;20213;-59
2023/04/10 00:50:16;;;;;;;3.43;2.73;;;;;;;8.04;71.80;63775.28;5030832;28;20189;-58
2023/04/10 00:52:42;;;;;;;3.23;2.77;;;;;;;8.14;71.41;63791.75;5030817;28;20187;-60
2023/04/10 00:55:08;;;;;;;3.47;2.70;;;;;;;8.24;69.84;63800.16;5030841;28;20182;-60
2023/04/10 00:57:34;;;;;;;3.83;2.90;;;;;;;8.40;69.63;63822.69;5030537;28;20276;-58
2023/04/10 01:00:00;;;;;;;3.93;3.27;;;;;;;8.39;71.60;63814.06;5030942;28;20193;-58
2023/04/10 01:02:25;;;;;;;5.80;2.70;;;;;;;8.23;72.42;63799.09;5012909;28;20239;-64
2023/04/10 01:04:51;;;;;;;3.50;3.20;;;;;;;8.24;74.38;63802.16;5030762;28;20218;-62
2023/04/10 01:08:07;;;;;;;3.33;2.90;;;;;;;8.46;72.30;63826.72;5030710;28;20186;-62
2023/04/10 01:10:51;;;;;;;3.10;2.60;;;;;;;8.55;72.84;63835.47;4953641;28;20185;-63
2023/04/10 01:13:35;;;;;;;4.53;3.40;;;;;;;8.38;73.15;63817.97;5030711;28;20209;-62
2023/04/10 01:16:02;;;;;;;3.47;3.10;;;;;;;8.45;75.96;63825.09;5012801;28;20191;-62
2023/04/10 01:18:36;;;;;;;5.17;3.67;;;;;;;8.50;77.37;63830.00;5030724;28;20210;-62
2023/04/10 01:21:08;;;;;;;4.40;3.40;;;;;;;8.61;77.12;63837.53;5030635;28;20186;-58
2023/04/10 01:23:59;;;;;;;5.13;3.97;;;;;;;8.41;79.44;63816.25;5030617;28;20296;-58
2023/04/10 01:27:00;;;;;;;6.70;4.50;;;;;;;8.32;82.06;63811.44;5030482;28;20249;-59
2023/04/10 01:29:29;;;;;;;5.20;3.70;;;;;;;8.41;81.38;63821.28;5030146;28;20209;-58
2023/04/10 01:32:07;;;;;;;5.90;4.37;;;;;;;8.33;82.87;63809.47;5013025;28;20179;-58
2023/04/10 01:34:42;;;;;;;6.23;3.93;;;;;;;8.43;81.35;63822.91;5030205;28;20245;-57
2023/04/10 01:37:13;;;;;;;4.83;4.00;;;;;;;8.24;79.39;63802.69;5030220;28;20210;-60
2023/04/10 01:39:41;;;;;;;6.03;4.00;;;;;;;8.45;77.65;63822.56;5030752;28;20217;-59
2023/04/10 01:42:09;;;;;;;4.60;3.53;;;;;;;8.42;77.01;63821.81;5030247;28;20194;-61
2023/04/10 01:44:40;;;;;;;4.23;3.10;;;;;;;8.48;75.61;63823.34;5030394;28;20244;-60
2023/04/10 01:47:06;;;;;;;5.10;4.00;;;;;;;8.33;74.99;63812.53;5030278;28;20212;-59
2023/04/10 01:49:32;;;;;;;5.13;3.23;;;;;;;8.22;75.60;63797.97;5030159;28;20218;-60
2023/04/10 01:51:59;;;;;;;5.37;3.80;;;;;;;8.27;75.13;63805.44;5030248;28;20287;-58
2023/04/10 01:54:31;;;;;;;4.37;3.43;;;;;;;8.15;76.61;63787.84;5032758;28;20307;-57
2023/04/10 01:57:01;;;;;;;5.00;3.47;;;;;;;8.26;78.50;63802.38;5033475;28;20192;-59
2023/04/10 01:59:26;;;;;;;4.77;3.20;;;;;;;8.10;78.76;63782.38;5033747;28;20218;-58
2023/04/10 02:01:56;;;;;;;5.20;3.60;;;;;;;8.14;79.94;63791.22;5033427;28;20197;-58
2023/04/10 02:04:21;;;;;;;5.00;3.67;;;;;;;8.25;77.79;63801.28;5015848;28;20233;-57
2023/04/10 02:07:06;;;;;;;4.50;3.67;;;;;;;8.30;78.38;63808.72;5033140;28;20325;-57
2023/04/10 02:09:43;;;;;;;3.63;3.13;;;;;;;8.34;77.82;63813.63;5015511;28;20319;-59
2023/04/10 02:12:15;;;;;;;3.87;3.40;;;;;;;8.41;77.12;63818.75;5033284;28;20190;-58
2023/04/10 02:14:50;;;;;;;4.13;3.53;;;;;;;8.17;79.34;63797.56;5033396;28;20202;-58
2023/04/10 02:17:22;;;;;;;4.13;3.47;;;;;;;8.16;81.35;63790.91;5033099;28;20225;-58
2023/04/10 02:19:50;;;;;;;4.10;3.40;;;;;;;8.30;79.62;63806.75;5033001;28;20214;-57
2023/04/10 02:22:16;;;;;;;5.93;3.83;;;;;;;8.28;80.74;63801.50;5015343;28;20217;-58
2023/04/10 02:24:43;;;;;;;3.37;2.80;;;;;;;8.42;76.50;63819.84;5033402;28;20722;-63
2023/04/10 02:27:08;;;;;;;3.90;3.30;;;;;;;8.40;77.38;63817.13;5032878;28;20645;-62
2023/04/10 02:29:33;;;;;;;3.93;3.23;;;;;;;8.25;78.99;63801.28;5032760;28;20301;-62
2023/04/10 02:31:59;;;;;;;5.70;3.50;;;;;;;8.48;78.70;63823.34;5032982;28;20197;-63
2023/04/10 02:34:25;;;;;;;7.93;3.77;;;;;;;8.43;80.12;63822.91;5033032;28;20217;-64
2023/04/10 02:36:51;;;;;;;4.23;3.63;;;;;;;8.60;77.64;63838.41;5032858;28;20186;-63
2023/04/10 02:39:16;;;;;;;4.50;3.23;;;;;;;8.54;77.42;63832.41;5032889;28;20207;-62
2023/04/10 02:41:42;;;;;;;5.20;3.60;;;;;;;8.46;77.18;63824.22;5032826;28;20192;-64
2023/04/10 02:44:07;;;;;;;6.80;3.73;;;;;;;8.42;77.44;63819.84;5015001;28;20210;-63
2023/04/10 02:46:33;;;;;;;4.40;3.30;;;;;;;8.47;76.09;63827.28;5042694;22;20218;-62
2023/04/10 02:48:58;;;;;;;7.77;3.83;;;;;;;8.47;75.17;63822.25;5032668;28;20295;-63
2023/04/10 02:51:24;;;;;;;4.90;3.67;;;;;;;8.35;73.68;63812.22;5032733;28;20236;-62
2023/04/10 02:53:51;;;;;;;4.70;3.60;;;;;;;8.24;74.97;63797.66;5039961;22;20260;-62
2023/04/10 02:56:17;;;;;;;4.40;3.63;;;;;;;8.15;77.21;63792.31;5032551;28;20194;-57
2023/04/10 02:58:45;;;;;;;5.37;3.57;;;;;;;8.10;77.68;63787.38;5032654;28;20564;-58
2023/04/10 03:01:11;;;;;;;5.03;3.90;;;;;;;8.03;77.28;63779.22;5032491;28;20640;-58
2023/04/10 03:03:37;;;;;;;5.17;3.80;;;;;;;8.05;77.36;63776.38;5032634;28;20224;-59
2023/04/10 03:06:02;;;;;;;6.87;4.50;;;;;;;8.08;79.10;63782.69;5031011;28;20182;-58
2023/04/10 03:08:29;;;;;;;5.07;3.93;;;;;;;8.04;78.88;63777.81;5032558;28;20214;-59
2023/04/10 03:10:55;;;;;;;6.10;4.57;;;;;;;7.86;79.34;63755.66;5032300;28;20559;-58
2023/04/10 03:13:22;;;;;;;6.50;4.73;;;;;;;7.89;80.21;63761.97;5032236;28;20264;-60
2023/04/10 03:15:47;;;;;;;6.33;4.63;;;;;;;7.87;80.68;63762.28;5032281;28;20174;-58
2023/04/10 03:18:13;;;;;;;7.17;4.33;;;;;;;8.04;79.62;63775.81;5032199;28;20232;-58
2023/04/10 03:20:38;;;;;;;7.17;4.07;;;;;;;8.22;78.97;63797.44;5032194;28;20184;-59
2023/04/10 03:23:06;;;;;;;5.17;3.90;;;;;;;8.38;77.37;63817.47;5014328;28;20592;-58
2023/04/10 03:25:36;;;;;;;5.20;4.33;;;;;;;8.30;77.59;63808.72;5032218;28;20205;-59
2023/04/10 03:28:02;;;;;;;5.47;4.63;;;;;;;8.20;77.59;63793.28;5014300;28;20214;-59
2023/04/10 03:30:28;;;;;;;8.60;4.53;;;;;;;8.10;79.67;63787.38;5031766;28;20186;-62
2023/04/10 03:32:53;;;;;;;5.53;4.40;;;;;;;8.06;80.38;63783.03;5014109;28;20213;-63
2023/04/10 03:35:19;;;;;;;6.73;4.10;;;;;;;8.01;80.21;63777.03;5014320;28;20635;-62
2023/04/10 03:37:44;;;;;;;7.80;5.30;;;;;;;7.97;81.15;63770.69;5031669;28;20660;-62
2023/04/10 03:40:11;;;;;;;8.03;5.50;;;;;;;7.91;80.46;63763.59;5014007;28;20764;-62
2023/04/10 03:42:37;;;;;;;6.60;5.23;;;;;;;7.98;82.05;63771.25;5031504;28;20194;-63
2023/04/10 03:45:03;;;;;;;7.40;4.83;;;;;;;7.98;82.32;63774.28;5013837;28;20244;-62
2023/04/10 03:47:32;;;;;;;7.03;4.30;;;;;;;7.71;82.07;63739.81;5031608;28;20238;-63
2023/04/10 03:49:58;;;;;;;6.70;5.20;;;;;;;7.87;82.21;63762.28;5014072;28;20205;-62
2023/04/10 03:52:24;;;;;;;7.17;4.33;;;;;;;7.85;82.32;63760.09;5031672;28;20186;-61
2023/04/10 03:54:50;;;;;;;5.73;4.37;;;;;;;7.79;81.88;63751.06;5031618;28;20684;-63
2023/04/10 03:57:18;;;;;;;6.67;4.13;;;;;;;7.86;83.06;63761.19;5031364;28;20210;-63
2023/04/10 03:59:43;;;;;;;8.50;4.80;;;;;;;7.97;83.87;63773.22;5013730;28;20221;-62
2023/04/10 04:02:09;;;;;;;9.27;4.93;;;;;;;8.13;81.50;63790.13;5031568;28;20190;-63
2023/04/10 04:04:35;;;;;;;6.93;4.73;;;;;;;8.20;81.97;63793.28;5031286;28;20242;-62
2023/04/10 04:07:00;;;;;;;7.53;4.43;;;;;;;7.94;83.79;63766.88;5031422;28;20240;-62
2023/04/10 04:09:26;;;;;;;10.20;4.70;;;;;;;8.13;81.50;63787.63;5031533;28;20206;-63
2023/04/10 04:11:51;;;;;;;9.43;4.93;;;;;;;8.21;82.02;63798.84;5031020;28;20194;-64
2023/04/10 04:14:16;;;;;;;9.30;5.17;;;;;;;8.42;82.21;63821.81;5031430;28;20660;-63
2023/04/10 04:16:42;;;;;;;11.87;6.40;;;;;;;8.53;80.42;63831.31;5030805;28;20193;-65
2023/04/10 04:19:07;;;;;;;12.87;6.47;;;;;;;8.57;81.44;63832.63;5031152;28;20638;-59
2023/04/10 04:21:32;;;;;;;14.53;7.23;;;;;;;8.45;81.11;63820.63;5031282;28;20201;-58
2023/04/10 04:23:58;;;;;;;11.90;6.53;;;;;;;8.39;82.89;63816.56;5031015;28;20375;-58
2023/04/10 04:26:23;;;;;;;15.03;6.43;;;;;;;8.38;83.74;63817.97;5030964;28;20196;-58
2023/04/10 04:28:49;;;;;;;9.33;5.70;;;;;;;8.32;85.15;63806.41;5031001;28;20218;-58
2023/04/10 04:31:15;;;;;;;11.33;5.60;;;;;;;8.34;84.42;63808.06;5030806;28;20189;-59
2023/04/10 04:33:40;;;;;;;11.77;6.13;;;;;;;8.44;83.92;63824.00;5031147;28;20289;-59
2023/04/10 04:36:06;;;;;;;9.87;5.80;;;;;;;8.52;84.97;63829.69;5030824;28;20198;-58
2023/04/10 04:38:32;;;;;;;10.33;6.37;;;;;;;8.54;84.90;63832.41;5030801;28;20210;-59
2023/04/10 04:40:57;;;;;;;9.97;6.50;;;;;;;8.84;82.25;63864.63;5013007;28;20524;-59
2023/04/10 04:43:23;;;;;;;11.40;6.30;;;;;;;8.52;83.02;63832.75;5030471;28;20218;-58
2023/04/10 04:45:48;;;;;;;9.87;7.03;;;;;;;8.26;83.69;63801.84;5030976;28;20332;-58
2023/04/10 04:48:14;;;;;;;12.37;7.53;;;;;;;8.43;84.48;63820.94;5030583;28;20214;-59
2023/04/10 04:50:40;;;;;;;10.10;7.07;;;;;;;8.52;83.39;63829.69;5030854;28;20197;-60
2023/04/10 04:53:06;;;;;;;11.70;6.50;;;;;;;8.56;83.62;63834.59;5030641;28;20214;-58
2023/04/10 04:55:32;;;;;;;10.53;5.97;;;;;;;8.44;83.45;63824.53;5030759;28;20269;-59
2023/04/10 04:57:57;;;;;;;19.40;9.97;;;;;;;8.43;85.62;63822.91;5030461;28;20213;-60
2023/04/10 05:00:22;;;;;;;13.87;6.97;;;;;;;8.48;84.13;63822.81;5030672;28;20276;-61
2023/04/10 05:02:48;;;;;;;12.97;6.43;;;;;;;8.44;84.26;63824.53;5030404;28;20289;-61
2023/04/10 05:05:13;;;;;;;15.67;10.23;;;;;;;8.42;85.97;63824.88;5012729;28;20197;-57
2023/04/10 05:07:39;;;;;;;12.27;6.97;;;;;;;8.27;86.30;63802.91;5030506;28;20251;-58
2023/04/10 05:10:05;;;;;;;10.30;5.70;;;;;;;8.16;86.66;63788.91;5030416;28;20186;-60
2023/04/10 05:12:31;;;;;;;10.57;6.53;;;;;;;8.28;86.97;63804.56;5030361;28;20178;-60
2023/04/10 05:14:58;;;;;;;10.63;7.10;;;;;;;8.49;85.69;63829.47;5030811;28;20565;-57
2023/04/10 05:17:23;;;;;;;11.33;7.23;;;;;;;8.60;83.45;63841.47;5030289;28;20214;-58
2023/04/10 05:19:49;;;;;;;11.00;6.60;;;;;;;8.56;83.20;63837.13;5030682;28;20220;-58
2023/04/10 05:22:14;;;;;;;14.23;7.13;;;;;;;8.46;83.87;63824.22;5030425;28;20558;-56
2023/04/10 05:24:40;;;;;;;10.80;6.90;;;;;;;8.45;83.89;63825.09;5030398;28;20766;-58
2023/04/10 05:27:06;;;;;;;8.03;5.73;;;;;;;8.57;83.46;63835.69;5012426;28;20289;-59
2023/04/10 05:29:31;;;;;;;10.37;5.00;;;;;;;8.46;81.49;63826.72;5015182;28;20221;-58
2023/04/10 05:31:57;;;;;;;6.27;4.80;;;;;;;8.52;82.24;63829.69;5033718;28;20194;-58
2023/04/10 05:34:22;;;;;;;5.23;4.73;;;;;;;8.47;82.84;63827.28;5033722;28;20221;-58
2023/04/10 05:36:47;;;;;;;6.17;4.63;;;;;;;8.50;82.32;63825.00;5033629;28;20200;-58
2023/04/10 05:39:14;;;;;;;6.87;4.97;;;;;;;8.62;83.63;63841.16;5033562;28;20715;-57
2023/04/10 05:41:39;;;;;;;9.37;5.70;;;;;;;8.77;81.59;63860.03;5015990;28;20269;-58
2023/04/10 05:44:05;;;;;;;7.60;5.40;;;;;;;8.78;81.46;63858.09;5033840;28;20746;-58
2023/04/10 05:46:30;;;;;;;7.90;5.43;;;;;;;8.89;81.68;63870.09;5015974;28;20182;-60
2023/04/10 05:48:56;;;;;;;8.70;6.20;;;;;;;9.04;80.61;63889.00;5033657;28;20206;-61
2023/04/10 05:51:22;;;;;;;9.00;5.27;;;;;;;9.15;80.65;63901.56;5033755;28;20239;-60
2023/04/10 05:53:47;;;;;;;8.60;5.47;;;;;;;9.11;80.41;63894.69;5041035;22;20305;-62
2023/04/10 05:56:13;;;;;;;9.27;5.77;;;;;;;9.18;79.44;63904.31;5015560;28;20190;-60
2023/04/10 05:58:38;;;;;;;7.67;5.67;;;;;;;9.19;79.87;63905.41;5033412;28;20252;-62
2023/04/10 06:01:04;;;;;;;8.63;6.37;;;;;;;9.44;79.07;63932.72;5033284;28;20313;-61
2023/04/10 06:03:30;;;;;;;7.73;5.37;;;;;;;9.16;80.21;63902.13;5033429;28;20225;-62
2023/04/10 06:05:57;;;;;;;9.33;5.90;;;;;;;9.16;80.89;63899.59;5033281;28;20194;-58
2023/04/10 06:08:22;;;;;;;11.50;6.80;;;;;;;9.49;78.82;63935.69;5033475;28;20225;-59
2023/04/10 06:10:48;;;;;;;9.57;6.80;;;;;;;9.49;79.52;63938.22;5033382;28;20244;-59
2023/04/10 06:13:16;;;;;;;11.33;6.57;;;;;;;9.50;78.98;63936.78;5033357;28;20210;-58
2023/04/10 06:15:42;;;;;;;11.23;6.23;;;;;;;9.37;79.52;63919.50;5033175;28;20193;-58
2023/04/10 06:18:08;;;;;;;12.33;6.60;;;;;;;9.15;79.71;63896.53;5032969;28;20226;-59
2023/04/10 06:20:33;;;;;;;13.20;7.23;;;;;;;9.12;80.92;63900.25;5033064;28;20186;-59
2023/04/10 06:22:59;;;;;;;9.47;7.37;;;;;;;9.17;81.14;63901.25;5033258;28;20237;-61
2023/04/10 06:25:25;;;;;;;10.90;7.03;;;;;;;9.19;80.39;63905.94;5033343;28;20632;-58
2023/04/10 06:27:51;;;;;;;8.23;6.53;;;;;;;9.35;77.58;63922.91;5033041;28;20748;-58
2023/04/10 06:30:16;;;;;;;8.53;6.50;;;;;;;9.14;80.94;63894.91;5032926;28;20588;-59
2023/04/10 06:32:42;;;;;;;8.37;6.10;;;;;;;9.21;78.61;63905.09;5032775;28;20190;-58
2023/04/10 06:35:08;;;;;;;9.30;7.27;;;;;;;9.53;78.17;63939.50;5032833;28;20653;-58
2023/04/10 06:37:34;;;;;;;10.87;6.73;;;;;;;9.39;79.42;63927.28;5032751;28;20245;-59
2023/04/10 06:40:02;;;;;;;9.80;6.30;;;;;;;9.29;78.11;63914.34;5032610;28;20233;-58
2023/04/10 06:42:28;;;;;;;8.73;6.83;;;;;;;9.41;78.42;63928.91;5032737;28;20288;-59
2023/04/10 06:44:53;;;;;;;9.33;7.10;;;;;;;9.50;79.06;63933.72;5032463;28;20701;-57
2023/04/10 06:47:19;;;;;;;10.07;7.00;;;;;;;9.63;77.50;63950.44;5032736;28;20182;-59
2023/04/10 06:49:45;;;;;;;7.93;7.10;;;;;;;9.69;76.34;63957.56;5032937;28;20660;-58
2023/04/10 06:52:10;;;;;;;14.83;8.20;;;;;;;9.76;76.62;63965.22;5032518;28;20665;-57
2023/04/10 06:54:35;;;;;;;10.63;6.53;;;;;;;9.64;76.09;63949.00;5032665;28;20302;-58
2023/04/10 06:57:01;;;;;;;10.90;7.63;;;;;;;9.61;76.37;63948.81;5032322;28;20778;-62
2023/04/10 06:59:27;;;;;;;8.73;6.70;;;;;;;9.66;77.65;63956.78;5014614;28;20206;-64
2023/04/10 07:01:53;;;;;;;9.40;7.20;;;;;;;9.68;77.92;63953.94;5032313;28;20232;-63
2023/04/10 07:04:18;;;;;;;10.80;6.83;;;;;;;9.66;79.32;63956.78;5014662;28;20240;-65
2023/04/10 07:06:44;;;;;;;9.17;7.10;;;;;;;9.74;77.38;63957.44;5032499;28;20675;-64
2023/04/10 07:09:09;;;;;;;13.20;7.73;;;;;;;9.73;76.91;63961.94;5032668;28;20596;-64
2023/04/10 07:11:35;;;;;;;10.67;7.67;;;;;;;9.81;75.31;63973.19;5032254;28;20265;-63
2023/04/10 07:14:00;;;;;;;9.27;7.43;;;;;;;9.68;77.12;63955.91;5032548;28;20213;-63
2023/04/10 07:16:26;;;;;;;10.93;8.33;;;;;;;9.70;77.00;63956.13;5032098;28;20232;-64
2023/04/10 07:18:51;;;;;;;13.20;7.97;;;;;;;9.73;77.83;63963.91;5032174;28;20649;-64
2023/04/10 07:21:17;;;;;;;11.93;8.47;;;;;;;9.68;76.78;63955.91;5014333;28;20196;-63
2023/04/10 07:23:42;;;;;;;12.90;7.67;;;;;;;9.55;76.99;63944.22;5032100;28;20241;-64
2023/04/10 07:26:08;;;;;;;12.23;8.20;;;;;;;9.80;77.94;63971.53;5031987;28;20273;-63
2023/04/10 07:28:33;;;;;;;14.70;9.17;;;;;;;9.80;78.02;63969.03;5031856;28;20663;-63
2023/04/10 07:30:59;;;;;;;14.30;7.70;;;;;;;9.89;77.37;63976.91;5032011;28;20668;-63
2023/04/10 07:33:24;;;;;;;14.00;8.20;;;;;;;9.88;77.69;63975.81;5032043;28;20655;-66
2023/04/10 07:35:50;;;;;;;12.00;8.20;;;;;;;9.84;77.29;63973.41;5031876;28;20659;-64
2023/04/10 07:38:17;;;;;;;11.93;8.13;;;;;;;9.79;78.36;63972.97;5031774;28;20206;-63
2023/04/10 07:40:42;;;;;;;14.27;9.53;;;;;;;9.79;79.02;63968.50;5013947;28;20201;-64
2023/04/10 07:43:08;;;;;;;12.70;8.13;;;;;;;9.98;79.18;63988.72;5014055;28;20632;-63
2023/04/10 07:45:33;;;;;;;12.93;9.03;;;;;;;9.94;77.32;63981.81;5014017;28;20214;-65
2023/04/10 07:47:59;;;;;;;14.03;8.80;;;;;;;10.02;76.54;63996.16;5031598;28;20213;-63
2023/04/10 07:50:24;;;;;;;14.30;8.57;;;;;;;10.09;74.71;64001.31;5031244;28;20270;-64
2023/04/10 07:52:49;;;;;;;13.67;8.90;;;;;;;9.90;75.05;63979.97;5031367;28;20214;-65
2023/04/10 07:55:15;;;;;;;16.80;10.43;;;;;;;9.95;75.73;63986.00;5013845;28;20224;-64
2023/04/10 07:57:40;;;;;;;12.63;8.57;;;;;;;10.17;77.74;64012.06;5031411;28;20204;-63
2023/04/10 08:00:07;;;;;;;13.13;9.80;;;;;;;10.32;75.81;64025.41;5031625;28;20672;-64
2023/04/10 08:02:32;;;;;;;12.07;9.20;;;;;;;10.45;75.68;64039.63;5031323;28;20193;-64
2023/04/10 08:04:58;;;;;;;13.50;9.73;;;;;;;10.31;74.43;64024.31;5031549;28;20285;-63
2023/04/10 08:07:23;;;;;;;13.63;8.33;;;;;;;10.44;73.90;64036.00;5031273;28;20189;-63
2023/04/10 08:09:49;;;;;;;14.40;9.23;;;;;;;10.28;74.14;64021.56;5031160;28;20761;-64
2023/04/10 08:12:14;;;;;;;13.27;9.30;;;;;;;10.35;75.55;64034.25;5031454;28;20186;-63
2023/04/10 08:14:40;;;;;;;15.10;10.47;;;;;;;10.50;75.29;64047.63;5031103;28;20233;-61
2023/04/10 08:17:05;;;;;;;12.67;8.57;;;;;;;10.58;75.04;64053.84;5013392;28;20190;-64
2023/04/10 08:19:31;;;;;;;13.40;9.00;;;;;;;10.59;73.58;64055.50;5013236;28;20259;-63
2023/04/10 08:21:56;;;;;;;13.30;8.57;;;;;;;10.27;73.48;64020.47;5031133;28;20561;-63
2023/04/10 08:24:22;;;;;;;13.97;9.23;;;;;;;10.68;75.19;64065.34;5031351;28;20271;-63
2023/04/10 08:26:48;;;;;;;14.10;8.50;;;;;;;10.51;74.76;64046.19;5031121;28;20575;-62
2023/04/10 08:29:14;;;;;;;14.83;9.63;;;;;;;10.72;74.02;64066.66;5031193;28;20210;-64
2023/04/10 08:31:39;;;;;;;11.97;8.83;;;;;;;10.51;74.09;64049.25;5030996;28;20185;-63
2023/04/10 08:34:04;;;;;;;14.97;9.40;;;;;;;10.46;74.98;64040.72;5013052;28;20304;-63
2023/04/10 08:36:30;;;;;;;13.80;8.87;;;;;;;10.61;75.22;64060.19;5013159;28;20190;-63
2023/04/10 08:38:56;;;;;;;11.13;8.00;;;;;;;10.38;75.23;64035.03;5031175;28;20680;-63
2023/04/10 08:41:21;;;;;;;12.60;8.40;;;;;;;10.62;75.01;64060.75;5030848;28;20201;-64
2023/04/10 08:43:48;;;;;;;13.47;8.47;;;;;;;10.70;75.05;64069.50;5031088;28;20214;-63
2023/04/10 08:46:14;;;;;;;16.17;9.23;;;;;;;10.60;74.38;64056.59;5030740;28;20189;-63
2023/04/10 08:48:51;;;;;;;12.47;8.80;;;;;;;10.65;73.69;64061.50;5013029;28;20282;-62
2023/04/10 08:51:19;;;;;;;10.50;7.77;;;;;;;10.69;72.34;64063.38;5030951;28;20201;-63
2023/04/10 08:53:49;;;;;;;12.70;9.00;;;;;;;10.77;73.34;64072.69;5030862;28;20212;-62
2023/04/10 08:56:17;;;;;;;11.30;8.63;;;;;;;10.67;74.40;64064.25;5013279;28;20212;-64
2023/04/10 08:58:43;;;;;;;10.47;8.57;;;;;;;10.67;73.59;64063.69;5030449;28;20245;-65
2023/04/10 09:01:10;;;;;;;11.93;8.17;;;;;;;10.52;73.56;64047.84;5030765;28;20735;-63
2023/04/10 09:03:36;;;;;;;10.60;8.57;;;;;;;10.76;73.72;64073.56;5030987;28;20283;-65
2023/04/10 09:06:03;;;;;;;12.57;7.23;;;;;;;10.58;71.79;64053.84;5030984;28;20264;-63
2023/04/10 09:08:29;;;;;;;13.27;8.70;;;;;;;10.63;71.98;64059.31;5030865;28;20224;-62
2023/04/10 09:10:54;;;;;;;10.77;7.93;;;;;;;10.65;72.03;64059.00;5030852;28;20269;-64
2023/04/10 09:13:41;;;;;;;10.73;7.90;;;;;;;10.68;72.21;64062.28;5031067;28;20664;-65
2023/04/10 09:18:52;;;;;;;9.03;7.50;;;;;;;10.53;70.14;64048.94;5030466;28;20220;-67
2023/04/10 09:21:20;;;;;;;12.00;9.00;;;;;;;10.39;72.08;64030.53;5030727;28;20190;-61
2023/04/10 09:23:46;;;;;;;12.90;8.30;;;;;;;10.41;73.45;64033.28;5030223;28;20214;-63
2023/04/10 09:26:26;;;;;;;13.83;8.97;;;;;;;10.71;72.90;64068.63;5030527;28;20247;-63
2023/04/10 09:29:12;;;;;;;13.80;8.00;;;;;;;10.92;70.89;64094.16;5030714;28;20267;-62
2023/04/10 09:31:39;;;;;;;9.97;7.43;;;;;;;10.78;70.40;64076.31;5030246;28;20696;-64
2023/04/10 09:34:20;;;;;;;9.70;7.37;;;;;;;10.85;71.53;64086.47;5030178;28;20222;-64
2023/04/10 09:36:56;;;;;;;13.47;8.43;;;;;;;10.73;71.15;64067.75;5030207;28;20629;-63
2023/04/10 09:39:33;;;;;;;11.03;8.20;;;;;;;10.74;71.33;64071.38;5012276;28;20222;-63
2023/04/10 09:41:58;;;;;;;9.87;7.53;;;;;;;10.66;71.41;64065.69;5030209;28;20273;-63
2023/04/10 09:44:32;;;;;;;10.77;8.00;;;;;;;10.76;72.39;64076.63;5030071;28;20260;-62
2023/04/10 09:47:21;;;;;;;9.33;7.67;;;;;;;10.64;72.77;64060.44;5030089;28;20665;-62
2023/04/10 09:49:51;;;;;;;10.97;7.63;;;;;;;10.65;71.55;64061.50;5029923;28;20268;-64
2023/04/10 09:52:28;;;;;;;13.83;8.60;;;;;;;10.81;72.79;64079.03;5030114;28;20194;-63
2023/04/10 09:54:58;;;;;;;8.93;6.73;;;;;;;10.98;71.38;64097.66;5030085;28;20225;-62
2023/04/10 09:57:32;;;;;;;10.17;7.57;;;;;;;11.18;69.55;64119.00;5029991;28;20218;-63
2023/04/10 10:00:00;;;;;;;9.70;7.37;;;;;;;11.35;69.69;64137.63;5030201;28;20191;-62
2023/04/10 10:02:29;;;;;;;9.70;6.93;;;;;;;11.46;67.65;64150.22;5029982;28;20209;-62
2023/04/10 10:04:55;;;;;;;11.10;7.13;;;;;;;11.57;67.71;64159.19;5029862;28;20202;-63
2023/04/10 10:07:23;;;;;;;10.43;7.07;;;;;;;11.64;66.86;64169.38;5030019;28;20566;-62
2023/04/10 10:09:50;;;;;;;13.03;7.43;;;;;;;11.68;66.46;64174.34;5030145;28;20217;-63
2023/04/10 10:12:23;;;;;;;11.47;7.53;;;;;;;11.91;66.15;64198.44;5029891;28;20227;-61
2023/04/10 10:14:56;;;;;;;8.63;6.70;;;;;;;11.77;63.31;64181.69;5031869;28;20206;-62
2023/04/10 10:17:26;;;;;;;8.43;6.33;;;;;;;11.44;64.72;64148.03;5033275;28;20217;-64
2023/04/10 10:20:08;;;;;;;9.23;7.00;;;;;;;11.52;65.30;64156.25;5032802;28;20218;-61
2023/04/10 10:22:35;;;;;;;7.60;6.10;;;;;;;11.40;64.74;64143.09;5032875;28;20193;-63
2023/04/10 10:25:02;;;;;;;7.80;6.40;;;;;;;11.57;64.11;64161.72;5032931;28;20193;-62
2023/04/10 10:27:30;;;;;;;7.87;5.73;;;;;;;10.71;63.50;64068.06;5032885;28;20181;-62
2023/04/10 10:29:59;;;;;;;9.80;6.13;;;;;;;11.96;64.23;64201.41;5032736;28;20194;-64
2023/04/10 10:32:26;;;;;;;9.07;6.10;;;;;;;11.94;63.16;64204.28;5033045;28;20190;-63
2023/04/10 10:34:53;;;;;;;7.77;6.30;;;;;;;11.92;62.90;64199.56;5033180;28;20245;-63
2023/04/10 10:37:21;;;;;;;8.20;6.53;;;;;;;11.86;61.89;64193.50;5032854;28;20190;-63
2023/04/10 10:40:09;;;;;;;8.13;6.17;;;;;;;12.01;64.22;64206.88;5032884;28;20260;-64
2023/04/10 10:43:31;;;;;;;8.03;6.63;;;;;;;12.22;62.94;64230.44;5032904;28;20708;-63
2023/04/10 10:46:10;;;;;;;9.63;6.93;;;;;;;12.21;61.63;64231.88;4971820;28;20195;-62
2023/04/10 10:48:35;;;;;;;8.30;6.50;;;;;;;11.91;62.25;64198.44;4971684;28;20310;-62
2023/04/10 10:51:02;;;;;;;7.73;6.60;;;;;;;11.96;62.90;64203.94;5012742;28;20279;-63
2023/04/10 10:53:43;;;;;;;12.80;7.60;;;;;;;12.06;62.77;64215.44;5032876;28;20222;-63
2023/04/10 10:56:17;;;;;;;10.50;6.60;;;;;;;12.08;61.68;64217.09;5032418;28;20235;-67
2023/04/10 10:58:51;;;;;;;7.60;6.67;;;;;;;12.89;60.54;64305.91;5032631;28;20228;-62
2023/04/10 11:01:17;;;;;;;7.67;6.10;;;;;;;13.69;59.57;64390.13;5032405;28;20221;-63
2023/04/10 11:03:44;;;;;;;11.43;6.37;;;;;;;14.42;58.14;64470.31;5032624;28;20249;-63
2023/04/10 11:06:20;;;;;;;8.63;6.03;;;;;;;15.04;53.94;64541.00;5032397;28;20179;-64
2023/04/10 11:08:51;;;;;;;7.80;6.30;;;;;;;14.96;53.23;64531.66;5032569;28;20233;-62
2023/04/10 11:11:24;;;;;;;9.43;6.37;;;;;;;15.01;50.92;64532.59;5032279;28;20583;-58
2023/04/10 11:13:50;;;;;;;8.70;7.00;;;;;;;14.73;52.62;64503.81;5032411;28;20304;-57
2023/04/10 11:16:17;;;;;;;8.52;6.93;;;;;;;14.40;54.45;64470.66;5014405;28;20237;-58
2023/04/10 11:18:48;;;;;;;7.87;6.23;;;;;;;14.40;53.60;64467.56;5032488;28;20229;-57
2023/04/10 11:21:18;;;;;;;10.88;5.82;;;;;;;14.11;52.39;64438.75;5031978;28;20194;-56
2023/04/10 11:23:51;;;;;;;7.85;6.20;;;;;;;14.14;52.41;64442.06;5032075;28;20762;-57
2023/04/10 11:26:32;;;;;;;7.33;5.87;;;;;;;14.02;53.81;64426.34;5030804;28;20269;-58
2023/04/10 11:28:57;;;;;;;7.57;6.10;;;;;;;13.73;53.25;64395.06;5032155;28;20691;-56
2023/04/10 11:31:23;;;;;;;9.25;6.57;;;;;;;13.49;54.06;64371.78;5032227;28;20186;-57
2023/04/10 11:34:09;;;;;;;7.72;6.35;;;;;;;13.34;56.11;64355.31;5032136;28;20218;-62
2023/04/10 11:36:40;;;;;;;9.40;6.60;;;;;;;13.52;56.22;64372.00;5031472;28;20221;-58
2023/04/10 11:39:28;;;;;;;10.50;7.15;;;;;;;13.89;56.25;64414.59;5031640;28;20321;-56
2023/04/10 11:41:56;;;;;;;11.93;6.85;;;;;;;13.81;55.31;64403.28;5031600;28;20664;-56
2023/04/10 11:44:24;;;;;;;7.50;6.68;;;;;;;13.88;55.76;64410.97;5032041;28;20347;-57